LROP Weather Reports


time (UTC)temp
F
wind
direction
speed
knots
gust
knots
rain 1hr
in
rain 24hr
in
rain mn
in
humidity
%
barometer
mb
20230208180553 23 1.7 0.0 0.00 0.00 0.00 80 1043.0
20230208173552 25 90 5.2 0.0 0.00 0.00 0.00 74 1042.0
20230208170552 28 110 4.3 0.0 0.00 0.00 0.00 64 1042.0
20230208163552 28 90 6.1 0.0 0.00 0.00 0.00 69 1042.0
20230208160551 28 60 8.7 0.0 0.00 0.00 0.00 64 1042.0
20230208153552 30 70 8.7 0.0 0.00 0.00 0.00 59 1042.0
20230208150553 32 60 11.3 0.0 0.00 0.00 0.00 55 1041.0
20230208143551 32 60 14.8 0.0 0.00 0.00 0.00 55 1041.0
20230208140552 32 60 11.3 0.0 0.00 0.00 0.00 55 1041.0
20230208133552 34 60 9.6 0.0 0.00 0.00 0.00 56 1041.0
20230208130552 34 30 8.7 0.0 0.00 0.00 0.00 60 1041.0
20230208123552 32 40 4.3 0.0 0.00 0.00 0.00 64 1041.0
20230208120552 30 360 2.6 0.0 0.00 0.00 0.00 75 1041.0
20230208113552 30 360 2.6 0.0 0.00 0.00 0.00 80 1041.0
20230208110555 28 10 5.2 0.0 0.00 0.00 0.00 86 1041.0
20230208103553 28 350 6.1 0.0 0.00 0.00 0.00 86 1041.0
20230208100552 28 360 6.1 0.0 0.00 0.00 0.00 80 1041.0
20230208093552 28 280 5.2 0.0 0.00 0.00 0.00 80 1041.0
20230208090552 28 280 5.2 0.0 0.00 0.00 0.00 74 1041.0
20230208083552 28 290 4.3 0.0 0.00 0.00 0.00 69 1041.0
20230208080555 27 350 4.3 0.0 0.00 0.00 0.00 74 1041.0
20230208073552 27 20 5.2 0.0 0.00 0.00 0.00 69 1040.0
20230208070554 27 30 6.1 0.0 0.00 0.00 0.00 59 1040.0
20230208063552 27 30 5.2 0.0 0.00 0.00 0.00 64 1040.0
20230208060552 27 40 7.0 0.0 0.00 0.00 0.00 59 1040.0
20230208053551 25 60 12.2 0.0 0.00 0.00 0.00 69 1039.0
20230208050552 25 60 11.3 0.0 0.00 0.00 0.00 69 1039.0
20230208043553 25 60 12.2 0.0 0.00 0.00 0.00 74 1038.0
20230208040551 27 70 13.0 0.0 0.00 0.00 0.00 69 1038.0
20230208033553 27 60 12.2 0.0 0.00 0.00 0.00 69 1038.0
20230208030552 27 70 11.3 0.0 0.00 0.00 0.00 74 1038.0
20230208023552 27 70 9.6 0.0 0.00 0.00 0.00 80 1038.0
20230208020552 27 60 12.2 0.0 0.00 0.00 0.00 86 1037.0
20230208013552 27 60 12.2 0.0 0.00 0.00 0.00 86 1037.0
20230208010552 28 60 13.0 0.0 0.00 0.00 0.00 80 1037.0
20230208003552 28 70 7.8 0.0 0.00 0.00 0.00 93 1036.0
20230208000551 28 80 5.2 0.0 0.00 0.00 0.00 86 1036.0
20230207233553 30 70 2.6 0.0 0.00 0.00 0.00 69 1036.0
20230207230554 28 0.9 0.0 0.00 0.00 0.00 80 1035.0
20230207223552 28 180 1.7 0.0 0.00 0.00 0.00 86 1035.0
20230207220552 28 0.9 0.0 0.00 0.00 0.00 86 1035.0
20230207213552 30 20 5.2 0.0 0.00 0.00 0.00 75 1035.0
20230207210552 30 50 6.1 0.0 0.00 0.00 0.00 69 1035.0
20230207203551 30 60 2.6 0.0 0.00 0.00 0.00 75 1034.0
20230207200552 28 210 0.9 0.0 0.00 0.00 0.00 80 1034.0
20230207193552 28 1.7 0.0 0.00 0.00 0.00 69 1034.0
20230207190552 28 1.7 0.0 0.00 0.00 0.00 69 1034.0
20230207183552 30 0.9 0.0 0.00 0.00 0.00 59 1034.0